Weather at Sandy Point Airport

Public forecast

Using degrees Celsius for public forecast. Weather courtesy of forecast.io.

Closest aviation weather report (METAR) to Sandy Point Airport

Closest report is Lynden Pindling International Airport, 58.1 nm (107.6 km) S.

2024/05/20 06:00 (retrieved 25 minutes ago)

MYNN 200600Z 12006KT 9999 SCT020 BKN045 24/22 A2994

Closest aviation forecast (TAF) to Sandy Point Airport

Closest forecast is Fort Lauderdale Hollywood International Airport, 148.8 nm (275.6 km) W.

2024/05/20 06:27 (retrieved 0 seconds ago)

TAF KFLL 200520Z 2006/2112 14006KT P6SM SCT030 BKN200 FM200800 VRB04KT P6SM SCT030 SCT200 FM201300 24008KT P6SM VCSH SCT030 SCT050 FM201800 15008KT P6SM VCTS SCT030CB BKN050 FM210200 VRB04KT P6SM SCT025 SCT040